sensor_id;sensor_type;location;lat;lon;timestamp;temperature;humidity
19734;DHT22;10018;51.230;7.860;2023-03-23T00:01:37;10.90;99.90
19734;DHT22;10018;51.230;7.860;2023-03-23T00:04:03;10.90;99.90
19734;DHT22;10018;51.230;7.860;2023-03-23T00:06:29;11.00;99.90
19734;DHT22;10018;51.230;7.860;2023-03-23T00:09:00;11.00;99.90
19734;DHT22;10018;51.230;7.860;2023-03-23T00:11:29;11.00;99.90
19734;DHT22;10018;51.230;7.860;2023-03-23T00:13:56;11.00;99.90
19734;DHT22;10018;51.230;7.860;2023-03-23T00:16:25;11.00;99.90
19734;DHT22;10018;51.230;7.860;2023-03-23T00:19:03;10.90;99.90
19734;DHT22;10018;51.230;7.860;2023-03-23T00:21:34;10.90;99.90
19734;DHT22;10018;51.230;7.860;2023-03-23T00:24:02;10.90;99.90
19734;DHT22;10018;51.230;7.860;2023-03-23T00:26:28;10.80;99.90
19734;DHT22;10018;51.230;7.860;2023-03-23T00:28:55;10.80;99.90
19734;DHT22;10018;51.230;7.860;2023-03-23T00:31:21;10.70;99.90
19734;DHT22;10018;51.230;7.860;2023-03-23T00:33:49;10.70;99.90
19734;DHT22;10018;51.230;7.860;2023-03-23T00:36:14;10.80;99.90
19734;DHT22;10018;51.230;7.860;2023-03-23T00:38:40;10.80;99.90
19734;DHT22;10018;51.230;7.860;2023-03-23T00:41:09;10.70;99.90
19734;DHT22;10018;51.230;7.860;2023-03-23T00:43:36;10.70;99.90
19734;DHT22;10018;51.230;7.860;2023-03-23T00:46:03;10.70;99.90
19734;DHT22;10018;51.230;7.860;2023-03-23T00:48:34;10.70;99.90
19734;DHT22;10018;51.230;7.860;2023-03-23T00:51:03;10.70;99.90
19734;DHT22;10018;51.230;7.860;2023-03-23T00:53:32;10.60;99.90
19734;DHT22;10018;51.230;7.860;2023-03-23T00:56:00;10.70;99.90
19734;DHT22;10018;51.230;7.860;2023-03-23T00:58:25;10.60;99.90
19734;DHT22;10018;51.230;7.860;2023-03-23T01:00:51;10.70;99.90
19734;DHT22;10018;51.230;7.860;2023-03-23T01:03:17;10.70;99.90
19734;DHT22;10018;51.230;7.860;2023-03-23T01:05:44;10.70;99.90
19734;DHT22;10018;51.230;7.860;2023-03-23T01:08:12;10.80;99.90
19734;DHT22;10018;51.230;7.860;2023-03-23T01:10:38;10.80;99.90
19734;DHT22;10018;51.230;7.860;2023-03-23T01:13:05;10.80;99.90
19734;DHT22;10018;51.230;7.860;2023-03-23T01:15:31;10.80;99.90
19734;DHT22;10018;51.230;7.860;2023-03-23T01:17:57;10.80;99.90
19734;DHT22;10018;51.230;7.860;2023-03-23T01:20:23;10.80;99.90
19734;DHT22;10018;51.230;7.860;2023-03-23T01:22:50;10.80;99.90
19734;DHT22;10018;51.230;7.860;2023-03-23T01:25:15;10.80;99.90
19734;DHT22;10018;51.230;7.860;2023-03-23T01:27:41;10.80;99.90
19734;DHT22;10018;51.230;7.860;2023-03-23T01:30:08;10.80;99.90
19734;DHT22;10018;51.230;7.860;2023-03-23T01:32:38;10.80;99.90
19734;DHT22;10018;51.230;7.860;2023-03-23T01:35:04;10.70;99.90
19734;DHT22;10018;51.230;7.860;2023-03-23T01:37:30;10.80;99.90
19734;DHT22;10018;51.230;7.860;2023-03-23T01:39:56;10.80;99.90
19734;DHT22;10018;51.230;7.860;2023-03-23T01:42:30;10.80;99.90
19734;DHT22;10018;51.230;7.860;2023-03-23T01:50:51;10.80;99.90
19734;DHT22;10018;51.230;7.860;2023-03-23T01:53:20;10.80;99.90
19734;DHT22;10018;51.230;7.860;2023-03-23T01:55:49;10.90;99.90
19734;DHT22;10018;51.230;7.860;2023-03-23T01:58:18;10.90;99.90
19734;DHT22;10018;51.230;7.860;2023-03-23T02:00:45;10.90;99.90
19734;DHT22;10018;51.230;7.860;2023-03-23T02:03:11;10.80;99.90
19734;DHT22;10018;51.230;7.860;2023-03-23T02:05:44;10.90;99.90
19734;DHT22;10018;51.230;7.860;2023-03-23T02:08:11;10.80;99.90
19734;DHT22;10018;51.230;7.860;2023-03-23T02:10:38;10.80;99.90
19734;DHT22;10018;51.230;7.860;2023-03-23T02:13:07;10.80;99.90
19734;DHT22;10018;51.230;7.860;2023-03-23T02:16:07;10.70;99.90
19734;DHT22;10018;51.230;7.860;2023-03-23T02:18:40;10.70;99.90
19734;DHT22;10018;51.230;7.860;2023-03-23T02:38:09;10.50;99.90
19734;DHT22;10018;51.230;7.860;2023-03-23T02:40:47;10.50;99.90
19734;DHT22;10018;51.230;7.860;2023-03-23T02:43:16;10.50;99.90
19734;DHT22;10018;51.230;7.860;2023-03-23T02:45:44;10.50;99.90
19734;DHT22;10018;51.230;7.860;2023-03-23T02:48:12;10.50;99.90
19734;DHT22;10018;51.230;7.860;2023-03-23T02:50:44;10.40;99.90
19734;DHT22;10018;51.230;7.860;2023-03-23T02:53:13;10.40;99.90
19734;DHT22;10018;51.230;7.860;2023-03-23T02:55:42;10.40;99.90
19734;DHT22;10018;51.230;7.860;2023-03-23T02:58:09;10.40;99.90
19734;DHT22;10018;51.230;7.860;2023-03-23T03:00:35;10.40;99.90
19734;DHT22;10018;51.230;7.860;2023-03-23T03:03:03;10.40;99.90
19734;DHT22;10018;51.230;7.860;2023-03-23T03:08:49;10.30;99.90
19734;DHT22;10018;51.230;7.860;2023-03-23T03:11:17;10.30;99.90
19734;DHT22;10018;51.230;7.860;2023-03-23T03:14:03;10.30;99.90
19734;DHT22;10018;51.230;7.860;2023-03-23T03:17:17;10.30;99.90
19734;DHT22;10018;51.230;7.860;2023-03-23T03:19:29;10.30;99.90
19734;DHT22;10018;51.230;7.860;2023-03-23T03:21:57;10.30;99.90
19734;DHT22;10018;51.230;7.860;2023-03-23T03:24:27;10.30;99.90
19734;DHT22;10018;51.230;7.860;2023-03-23T03:26:56;10.30;99.90
19734;DHT22;10018;51.230;7.860;2023-03-23T03:29:44;10.30;99.90
19734;DHT22;10018;51.230;7.860;2023-03-23T03:32:16;10.30;99.90
19734;DHT22;10018;51.230;7.860;2023-03-23T03:34:43;10.30;99.90
19734;DHT22;10018;51.230;7.860;2023-03-23T03:37:10;10.30;99.90
19734;DHT22;10018;51.230;7.860;2023-03-23T03:39:37;10.30;99.90
19734;DHT22;10018;51.230;7.860;2023-03-23T03:42:05;10.30;99.90
19734;DHT22;10018;51.230;7.860;2023-03-23T03:44:32;10.30;99.90
19734;DHT22;10018;51.230;7.860;2023-03-23T03:46:58;10.30;99.90
19734;DHT22;10018;51.230;7.860;2023-03-23T03:49:25;10.30;99.90
19734;DHT22;10018;51.230;7.860;2023-03-23T03:51:51;10.30;99.90
19734;DHT22;10018;51.230;7.860;2023-03-23T03:54:17;10.30;99.90
19734;DHT22;10018;51.230;7.860;2023-03-23T03:56:43;10.30;99.90
19734;DHT22;10018;51.230;7.860;2023-03-23T03:59:09;10.30;99.90
19734;DHT22;10018;51.230;7.860;2023-03-23T04:01:36;10.20;99.90
19734;DHT22;10018;51.230;7.860;2023-03-23T04:04:03;10.30;99.90
19734;DHT22;10018;51.230;7.860;2023-03-23T04:06:29;10.30;99.90
19734;DHT22;10018;51.230;7.860;2023-03-23T04:08:56;10.20;99.90
19734;DHT22;10018;51.230;7.860;2023-03-23T04:11:24;10.20;99.90
19734;DHT22;10018;51.230;7.860;2023-03-23T04:13:53;10.30;99.90
19734;DHT22;10018;51.230;7.860;2023-03-23T04:16:18;10.30;99.90
19734;DHT22;10018;51.230;7.860;2023-03-23T04:18:46;10.30;99.90
19734;DHT22;10018;51.230;7.860;2023-03-23T04:21:14;10.30;99.90
19734;DHT22;10018;51.230;7.860;2023-03-23T04:23:42;10.30;99.90
19734;DHT22;10018;51.230;7.860;2023-03-23T04:26:07;10.30;99.90
19734;DHT22;10018;51.230;7.860;2023-03-23T04:28:33;10.30;99.90
19734;DHT22;10018;51.230;7.860;2023-03-23T04:31:00;10.30;99.90
19734;DHT22;10018;51.230;7.860;2023-03-23T04:33:27;10.30;99.90
19734;DHT22;10018;51.230;7.860;2023-03-23T04:35:57;10.30;99.90
19734;DHT22;10018;51.230;7.860;2023-03-23T04:38:26;10.30;99.90
19734;DHT22;10018;51.230;7.860;2023-03-23T04:40:52;10.30;99.90
19734;DHT22;10018;51.230;7.860;2023-03-23T04:43:19;10.30;99.90
19734;DHT22;10018;51.230;7.860;2023-03-23T04:45:47;10.30;99.90
19734;DHT22;10018;51.230;7.860;2023-03-23T04:48:12;10.30;99.90
19734;DHT22;10018;51.230;7.860;2023-03-23T04:50:40;10.30;99.90
19734;DHT22;10018;51.230;7.860;2023-03-23T04:53:06;10.30;99.90
19734;DHT22;10018;51.230;7.860;2023-03-23T04:55:34;10.20;99.90
19734;DHT22;10018;51.230;7.860;2023-03-23T04:58:03;10.20;99.90
19734;DHT22;10018;51.230;7.860;2023-03-23T05:00:29;10.30;99.90
19734;DHT22;10018;51.230;7.860;2023-03-23T05:02:55;10.30;99.90
19734;DHT22;10018;51.230;7.860;2023-03-23T05:05:24;10.40;99.90
19734;DHT22;10018;51.230;7.860;2023-03-23T05:07:51;10.40;99.90
19734;DHT22;10018;51.230;7.860;2023-03-23T05:10:19;10.40;99.90
19734;DHT22;10018;51.230;7.860;2023-03-23T05:12:47;10.40;99.90
19734;DHT22;10018;51.230;7.860;2023-03-23T05:15:14;10.40;99.90
19734;DHT22;10018;51.230;7.860;2023-03-23T05:17:41;10.40;99.90
19734;DHT22;10018;51.230;7.860;2023-03-23T05:20:11;10.50;99.90
19734;DHT22;10018;51.230;7.860;2023-03-23T05:22:37;10.50;99.90
19734;DHT22;10018;51.230;7.860;2023-03-23T05:25:05;10.40;99.90
19734;DHT22;10018;51.230;7.860;2023-03-23T05:27:31;10.40;99.90
19734;DHT22;10018;51.230;7.860;2023-03-23T05:29:58;10.40;99.90
19734;DHT22;10018;51.230;7.860;2023-03-23T05:32:27;10.40;99.90
19734;DHT22;10018;51.230;7.860;2023-03-23T05:34:56;10.50;99.90
19734;DHT22;10018;51.230;7.860;2023-03-23T05:37:23;10.50;99.90
19734;DHT22;10018;51.230;7.860;2023-03-23T05:39:48;10.50;99.90
19734;DHT22;10018;51.230;7.860;2023-03-23T05:42:14;10.40;99.90
19734;DHT22;10018;51.230;7.860;2023-03-23T05:44:39;10.40;99.90
19734;DHT22;10018;51.230;7.860;2023-03-23T05:47:05;10.50;99.90
19734;DHT22;10018;51.230;7.860;2023-03-23T05:49:31;10.40;99.90
19734;DHT22;10018;51.230;7.860;2023-03-23T05:51:56;10.30;99.90
19734;DHT22;10018;51.230;7.860;2023-03-23T05:54:22;10.30;99.90
19734;DHT22;10018;51.230;7.860;2023-03-23T05:56:47;10.30;99.90
19734;DHT22;10018;51.230;7.860;2023-03-23T05:59:16;10.40;99.90
19734;DHT22;10018;51.230;7.860;2023-03-23T06:01:42;10.40;99.90
19734;DHT22;10018;51.230;7.860;2023-03-23T06:04:08;10.50;99.90
19734;DHT22;10018;51.230;7.860;2023-03-23T06:06:34;10.50;99.90
19734;DHT22;10018;51.230;7.860;2023-03-23T06:09:00;10.50;99.90
19734;DHT22;10018;51.230;7.860;2023-03-23T06:11:26;10.60;99.90
19734;DHT22;10018;51.230;7.860;2023-03-23T06:13:52;10.50;99.90
19734;DHT22;10018;51.230;7.860;2023-03-23T06:16:20;10.50;99.90
19734;DHT22;10018;51.230;7.860;2023-03-23T06:18:48;10.60;99.90
19734;DHT22;10018;51.230;7.860;2023-03-23T06:21:19;10.70;99.90
19734;DHT22;10018;51.230;7.860;2023-03-23T06:23:45;10.80;99.90
19734;DHT22;10018;51.230;7.860;2023-03-23T06:26:13;10.80;99.90
19734;DHT22;10018;51.230;7.860;2023-03-23T06:28:41;10.90;99.90
19734;DHT22;10018;51.230;7.860;2023-03-23T06:31:07;10.90;99.90
19734;DHT22;10018;51.230;7.860;2023-03-23T06:33:34;10.90;99.90
19734;DHT22;10018;51.230;7.860;2023-03-23T06:36:01;10.90;99.90
19734;DHT22;10018;51.230;7.860;2023-03-23T06:38:27;10.90;99.90
19734;DHT22;10018;51.230;7.860;2023-03-23T06:40:55;10.90;99.90
19734;DHT22;10018;51.230;7.860;2023-03-23T06:43:22;11.00;99.90
19734;DHT22;10018;51.230;7.860;2023-03-23T06:45:49;11.00;99.90
19734;DHT22;10018;51.230;7.860;2023-03-23T06:48:14;11.00;99.90
19734;DHT22;10018;51.230;7.860;2023-03-23T06:50:44;11.10;99.90
19734;DHT22;10018;51.230;7.860;2023-03-23T06:53:10;11.20;99.90
19734;DHT22;10018;51.230;7.860;2023-03-23T06:55:39;11.20;99.90
19734;DHT22;10018;51.230;7.860;2023-03-23T06:58:05;11.30;99.90
19734;DHT22;10018;51.230;7.860;2023-03-23T07:00:32;11.30;99.90
19734;DHT22;10018;51.230;7.860;2023-03-23T07:02:58;11.40;99.90
19734;DHT22;10018;51.230;7.860;2023-03-23T07:05:24;11.40;99.90
19734;DHT22;10018;51.230;7.860;2023-03-23T07:07:50;11.40;99.90
19734;DHT22;10018;51.230;7.860;2023-03-23T07:10:16;11.40;99.90
19734;DHT22;10018;51.230;7.860;2023-03-23T07:12:42;11.50;99.90
19734;DHT22;10018;51.230;7.860;2023-03-23T07:15:08;11.40;99.90
19734;DHT22;10018;51.230;7.860;2023-03-23T07:17:36;11.50;99.90
19734;DHT22;10018;51.230;7.860;2023-03-23T07:20:05;11.50;99.90
19734;DHT22;10018;51.230;7.860;2023-03-23T07:22:34;11.50;99.90
19734;DHT22;10018;51.230;7.860;2023-03-23T07:24:59;11.50;99.90
19734;DHT22;10018;51.230;7.860;2023-03-23T07:27:25;11.50;99.90
19734;DHT22;10018;51.230;7.860;2023-03-23T07:29:51;11.50;99.90
19734;DHT22;10018;51.230;7.860;2023-03-23T07:32:19;11.50;99.90
19734;DHT22;10018;51.230;7.860;2023-03-23T07:34:45;11.50;99.90
19734;DHT22;10018;51.230;7.860;2023-03-23T07:37:11;11.60;99.90
19734;DHT22;10018;51.230;7.860;2023-03-23T07:39:37;11.70;99.90
19734;DHT22;10018;51.230;7.860;2023-03-23T07:42:05;11.70;99.90
19734;DHT22;10018;51.230;7.860;2023-03-23T07:44:32;11.60;99.90
19734;DHT22;10018;51.230;7.860;2023-03-23T07:46:58;11.70;99.90
19734;DHT22;10018;51.230;7.860;2023-03-23T07:49:23;11.80;99.90
19734;DHT22;10018;51.230;7.860;2023-03-23T07:51:49;11.80;99.90
19734;DHT22;10018;51.230;7.860;2023-03-23T07:54:15;11.80;99.90
19734;DHT22;10018;51.230;7.860;2023-03-23T07:56:41;11.90;99.90
19734;DHT22;10018;51.230;7.860;2023-03-23T07:59:08;11.90;99.90
19734;DHT22;10018;51.230;7.860;2023-03-23T08:01:35;11.80;99.90
19734;DHT22;10018;51.230;7.860;2023-03-23T08:04:00;11.80;99.90
19734;DHT22;10018;51.230;7.860;2023-03-23T08:06:27;11.80;99.90
19734;DHT22;10018;51.230;7.860;2023-03-23T08:08:53;11.90;99.90
19734;DHT22;10018;51.230;7.860;2023-03-23T08:11:20;11.90;99.90
19734;DHT22;10018;51.230;7.860;2023-03-23T08:13:46;11.90;99.90
19734;DHT22;10018;51.230;7.860;2023-03-23T08:16:12;11.90;99.90
19734;DHT22;10018;51.230;7.860;2023-03-23T08:18:39;12.00;99.90
19734;DHT22;10018;51.230;7.860;2023-03-23T08:21:06;12.00;99.90
19734;DHT22;10018;51.230;7.860;2023-03-23T08:23:34;12.00;99.90
19734;DHT22;10018;51.230;7.860;2023-03-23T08:26:00;12.10;99.90
19734;DHT22;10018;51.230;7.860;2023-03-23T08:28:27;12.10;99.90
19734;DHT22;10018;51.230;7.860;2023-03-23T08:30:52;12.20;99.90
19734;DHT22;10018;51.230;7.860;2023-03-23T08:33:18;12.30;99.90
19734;DHT22;10018;51.230;7.860;2023-03-23T08:35:54;12.30;99.90
19734;DHT22;10018;51.230;7.860;2023-03-23T08:38:20;12.40;99.90
19734;DHT22;10018;51.230;7.860;2023-03-23T08:40:46;12.30;99.90
19734;DHT22;10018;51.230;7.860;2023-03-23T08:43:13;12.40;99.90
19734;DHT22;10018;51.230;7.860;2023-03-23T08:45:39;12.40;99.90
19734;DHT22;10018;51.230;7.860;2023-03-23T08:48:05;12.50;99.90
19734;DHT22;10018;51.230;7.860;2023-03-23T08:50:35;12.50;99.90
19734;DHT22;10018;51.230;7.860;2023-03-23T08:53:01;12.60;99.90
19734;DHT22;10018;51.230;7.860;2023-03-23T08:55:26;12.50;99.90
19734;DHT22;10018;51.230;7.860;2023-03-23T08:57:55;12.60;99.90
19734;DHT22;10018;51.230;7.860;2023-03-23T09:00:23;12.60;99.90
19734;DHT22;10018;51.230;7.860;2023-03-23T09:02:52;12.60;99.90
19734;DHT22;10018;51.230;7.860;2023-03-23T09:05:23;12.70;99.90
19734;DHT22;10018;51.230;7.860;2023-03-23T09:07:51;12.70;99.90
19734;DHT22;10018;51.230;7.860;2023-03-23T09:10:17;12.80;99.90
19734;DHT22;10018;51.230;7.860;2023-03-23T09:12:45;12.80;99.90
19734;DHT22;10018;51.230;7.860;2023-03-23T09:15:13;12.90;99.90
19734;DHT22;10018;51.230;7.860;2023-03-23T09:17:48;12.80;99.90
19734;DHT22;10018;51.230;7.860;2023-03-23T09:20:21;12.90;99.90
19734;DHT22;10018;51.230;7.860;2023-03-23T09:22:51;13.10;99.90
19734;DHT22;10018;51.230;7.860;2023-03-23T09:25:26;13.10;99.90
19734;DHT22;10018;51.230;7.860;2023-03-23T09:27:54;13.20;99.90
19734;DHT22;10018;51.230;7.860;2023-03-23T09:30:26;13.20;99.90
19734;DHT22;10018;51.230;7.860;2023-03-23T09:32:53;13.30;99.90
19734;DHT22;10018;51.230;7.860;2023-03-23T09:35:19;13.30;99.90
19734;DHT22;10018;51.230;7.860;2023-03-23T09:37:46;13.40;99.90
19734;DHT22;10018;51.230;7.860;2023-03-23T09:40:18;13.30;99.90
19734;DHT22;10018;51.230;7.860;2023-03-23T09:43:09;13.40;99.90
19734;DHT22;10018;51.230;7.860;2023-03-23T09:56:40;13.20;99.90
19734;DHT22;10018;51.230;7.860;2023-03-23T09:59:27;13.10;99.90
19734;DHT22;10018;51.230;7.860;2023-03-23T10:01:59;13.10;99.90
19734;DHT22;10018;51.230;7.860;2023-03-23T10:04:36;13.10;99.90
19734;DHT22;10018;51.230;7.860;2023-03-23T10:07:25;13.10;99.90
19734;DHT22;10018;51.230;7.860;2023-03-23T10:09:56;13.10;99.90
19734;DHT22;10018;51.230;7.860;2023-03-23T10:13:00;13.20;99.90
19734;DHT22;10018;51.230;7.860;2023-03-23T10:15:33;13.10;99.90
19734;DHT22;10018;51.230;7.860;2023-03-23T10:18:12;13.10;99.90
19734;DHT22;10018;51.230;7.860;2023-03-23T10:20:44;13.20;99.90
19734;DHT22;10018;51.230;7.860;2023-03-23T10:28:46;13.10;99.90
19734;DHT22;10018;51.230;7.860;2023-03-23T10:31:19;13.10;99.90
19734;DHT22;10018;51.230;7.860;2023-03-23T10:33:48;13.10;99.90
19734;DHT22;10018;51.230;7.860;2023-03-23T10:36:37;13.10;99.90
19734;DHT22;10018;51.230;7.860;2023-03-23T10:39:19;13.20;99.90
19734;DHT22;10018;51.230;7.860;2023-03-23T10:41:46;13.20;99.90
19734;DHT22;10018;51.230;7.860;2023-03-23T10:44:20;13.20;99.90
19734;DHT22;10018;51.230;7.860;2023-03-23T10:47:07;13.20;99.90
19734;DHT22;10018;51.230;7.860;2023-03-23T10:49:47;13.30;99.90
19734;DHT22;10018;51.230;7.860;2023-03-23T10:52:36;13.40;99.90
19734;DHT22;10018;51.230;7.860;2023-03-23T10:55:13;13.40;99.90
19734;DHT22;10018;51.230;7.860;2023-03-23T10:57:45;13.40;99.90
19734;DHT22;10018;51.230;7.860;2023-03-23T11:00:21;13.50;99.90
19734;DHT22;10018;51.230;7.860;2023-03-23T11:06:05;13.50;99.90
19734;DHT22;10018;51.230;7.860;2023-03-23T11:08:38;13.50;99.90
19734;DHT22;10018;51.230;7.860;2023-03-23T11:11:29;13.50;99.90
19734;DHT22;10018;51.230;7.860;2023-03-23T11:14:12;13.50;99.90
19734;DHT22;10018;51.230;7.860;2023-03-23T11:16:49;13.40;99.90
19734;DHT22;10018;51.230;7.860;2023-03-23T11:19:24;13.30;99.90
19734;DHT22;10018;51.230;7.860;2023-03-23T11:21:52;13.30;99.90
19734;DHT22;10018;51.230;7.860;2023-03-23T11:24:22;13.40;99.90
19734;DHT22;10018;51.230;7.860;2023-03-23T11:26:50;13.40;99.90
19734;DHT22;10018;51.230;7.860;2023-03-23T11:29:26;13.50;99.90
19734;DHT22;10018;51.230;7.860;2023-03-23T11:32:09;13.40;99.90
19734;DHT22;10018;51.230;7.860;2023-03-23T11:34:44;13.20;99.90
19734;DHT22;10018;51.230;7.860;2023-03-23T11:42:42;13.10;99.90
19734;DHT22;10018;51.230;7.860;2023-03-23T11:45:19;13.00;99.90
19734;DHT22;10018;51.230;7.860;2023-03-23T11:50:51;13.10;99.90
19734;DHT22;10018;51.230;7.860;2023-03-23T11:56:46;13.00;99.90
19734;DHT22;10018;51.230;7.860;2023-03-23T11:58:47;13.00;99.90
19734;DHT22;10018;51.230;7.860;2023-03-23T12:04:24;13.00;99.90
19734;DHT22;10018;51.230;7.860;2023-03-23T12:07:17;13.00;99.90
19734;DHT22;10018;51.230;7.860;2023-03-23T12:10:01;13.00;99.90
19734;DHT22;10018;51.230;7.860;2023-03-23T12:18:15;13.10;99.90
19734;DHT22;10018;51.230;7.860;2023-03-23T12:23:52;13.30;99.90
19734;DHT22;10018;51.230;7.860;2023-03-23T12:26:27;13.40;99.90
19734;DHT22;10018;51.230;7.860;2023-03-23T12:34:38;13.80;99.90
19734;DHT22;10018;51.230;7.860;2023-03-23T12:48:28;14.00;99.90
19734;DHT22;10018;51.230;7.860;2023-03-23T12:54:09;13.80;99.90
19734;DHT22;10018;51.230;7.860;2023-03-23T12:59:10;13.40;99.90
19734;DHT22;10018;51.230;7.860;2023-03-23T13:01:44;13.30;99.90
19734;DHT22;10018;51.230;7.860;2023-03-23T13:04:13;13.20;99.90
19734;DHT22;10018;51.230;7.860;2023-03-23T13:06:45;13.00;99.90
19734;DHT22;10018;51.230;7.860;2023-03-23T13:09:43;12.90;99.90
19734;DHT22;10018;51.230;7.860;2023-03-23T13:12:13;12.80;99.90
19734;DHT22;10018;51.230;7.860;2023-03-23T13:17:33;12.70;99.90
19734;DHT22;10018;51.230;7.860;2023-03-23T13:28:18;12.60;99.90
19734;DHT22;10018;51.230;7.860;2023-03-23T13:31:15;12.70;99.90
19734;DHT22;10018;51.230;7.860;2023-03-23T13:33:50;13.20;99.90
19734;DHT22;10018;51.230;7.860;2023-03-23T13:36:26;13.50;99.90
19734;DHT22;10018;51.230;7.860;2023-03-23T13:38:54;13.60;99.90
19734;DHT22;10018;51.230;7.860;2023-03-23T13:41:22;13.60;99.90
19734;DHT22;10018;51.230;7.860;2023-03-23T13:43:48;13.60;99.90
19734;DHT22;10018;51.230;7.860;2023-03-23T13:54:40;13.40;99.90
19734;DHT22;10018;51.230;7.860;2023-03-23T13:57:26;13.30;99.90
19734;DHT22;10018;51.230;7.860;2023-03-23T13:59:57;13.30;99.90
19734;DHT22;10018;51.230;7.860;2023-03-23T14:02:31;13.30;99.90
19734;DHT22;10018;51.230;7.860;2023-03-23T14:05:07;13.30;99.90
19734;DHT22;10018;51.230;7.860;2023-03-23T14:07:54;13.20;99.90
19734;DHT22;10018;51.230;7.860;2023-03-23T14:10:21;13.20;99.90
19734;DHT22;10018;51.230;7.860;2023-03-23T14:12:52;13.10;99.90
19734;DHT22;10018;51.230;7.860;2023-03-23T14:15:20;13.10;99.90
19734;DHT22;10018;51.230;7.860;2023-03-23T14:17:47;13.10;99.90
19734;DHT22;10018;51.230;7.860;2023-03-23T14:20:36;13.20;99.90
19734;DHT22;10018;51.230;7.860;2023-03-23T14:23:02;13.10;99.90
19734;DHT22;10018;51.230;7.860;2023-03-23T14:25:30;13.10;99.90
19734;DHT22;10018;51.230;7.860;2023-03-23T14:27:59;13.10;99.90
19734;DHT22;10018;51.230;7.860;2023-03-23T14:30:35;13.20;99.90
19734;DHT22;10018;51.230;7.860;2023-03-23T14:33:06;13.30;99.90
19734;DHT22;10018;51.230;7.860;2023-03-23T14:35:35;13.20;99.90
19734;DHT22;10018;51.230;7.860;2023-03-23T14:38:01;13.30;99.90
19734;DHT22;10018;51.230;7.860;2023-03-23T14:40:28;13.30;99.90
19734;DHT22;10018;51.230;7.860;2023-03-23T14:42:57;13.30;99.90
19734;DHT22;10018;51.230;7.860;2023-03-23T14:45:24;13.30;99.90
19734;DHT22;10018;51.230;7.860;2023-03-23T14:48:01;13.30;99.90
19734;DHT22;10018;51.230;7.860;2023-03-23T14:50:30;13.20;99.90
19734;DHT22;10018;51.230;7.860;2023-03-23T14:53:09;13.10;99.90
19734;DHT22;10018;51.230;7.860;2023-03-23T14:55:35;13.00;99.90
19734;DHT22;10018;51.230;7.860;2023-03-23T14:58:08;12.90;99.90
19734;DHT22;10018;51.230;7.860;2023-03-23T15:00:41;13.00;99.90
19734;DHT22;10018;51.230;7.860;2023-03-23T15:03:12;13.00;99.90
19734;DHT22;10018;51.230;7.860;2023-03-23T15:05:43;13.00;99.90
19734;DHT22;10018;51.230;7.860;2023-03-23T15:10:53;13.20;99.90
19734;DHT22;10018;51.230;7.860;2023-03-23T15:13:19;13.20;99.90
19734;DHT22;10018;51.230;7.860;2023-03-23T15:15:45;13.30;99.90
19734;DHT22;10018;51.230;7.860;2023-03-23T15:18:30;13.40;99.90
19734;DHT22;10018;51.230;7.860;2023-03-23T15:20:56;13.40;99.90
19734;DHT22;10018;51.230;7.860;2023-03-23T15:23:27;13.40;99.90
19734;DHT22;10018;51.230;7.860;2023-03-23T15:25:55;13.50;99.90
19734;DHT22;10018;51.230;7.860;2023-03-23T15:28:31;13.40;99.90
19734;DHT22;10018;51.230;7.860;2023-03-23T15:31:01;13.40;99.90
19734;DHT22;10018;51.230;7.860;2023-03-23T15:33:33;13.40;99.90
19734;DHT22;10018;51.230;7.860;2023-03-23T15:36:09;13.40;99.90
19734;DHT22;10018;51.230;7.860;2023-03-23T15:38:35;13.30;99.90
19734;DHT22;10018;51.230;7.860;2023-03-23T15:41:06;13.40;99.90
19734;DHT22;10018;51.230;7.860;2023-03-23T15:43:55;13.40;99.90
19734;DHT22;10018;51.230;7.860;2023-03-23T15:46:26;13.40;99.90
19734;DHT22;10018;51.230;7.860;2023-03-23T15:51:28;13.20;99.90
19734;DHT22;10018;51.230;7.860;2023-03-23T15:53:55;13.10;99.90
19734;DHT22;10018;51.230;7.860;2023-03-23T15:56:22;13.00;99.90
19734;DHT22;10018;51.230;7.860;2023-03-23T15:58:51;13.00;99.90
19734;DHT22;10018;51.230;7.860;2023-03-23T16:01:22;13.00;99.90
19734;DHT22;10018;51.230;7.860;2023-03-23T16:03:50;13.00;99.90
19734;DHT22;10018;51.230;7.860;2023-03-23T16:06:18;13.00;99.90
19734;DHT22;10018;51.230;7.860;2023-03-23T16:08:44;13.00;99.90
19734;DHT22;10018;51.230;7.860;2023-03-23T16:11:14;12.90;99.90
19734;DHT22;10018;51.230;7.860;2023-03-23T16:13:40;12.90;99.90
19734;DHT22;10018;51.230;7.860;2023-03-23T16:16:15;12.90;99.90
19734;DHT22;10018;51.230;7.860;2023-03-23T16:18:43;12.90;99.90
19734;DHT22;10018;51.230;7.860;2023-03-23T16:21:11;12.90;99.90
19734;DHT22;10018;51.230;7.860;2023-03-23T16:23:37;13.00;99.90
19734;DHT22;10018;51.230;7.860;2023-03-23T16:26:03;13.30;99.90
19734;DHT22;10018;51.230;7.860;2023-03-23T16:28:29;13.90;99.90
19734;DHT22;10018;51.230;7.860;2023-03-23T16:30:57;14.70;99.90
19734;DHT22;10018;51.230;7.860;2023-03-23T16:33:22;15.40;99.90
19734;DHT22;10018;51.230;7.860;2023-03-23T16:35:50;15.90;99.90
19734;DHT22;10018;51.230;7.860;2023-03-23T16:38:17;16.50;99.90
19734;DHT22;10018;51.230;7.860;2023-03-23T16:40:43;16.70;99.90
19734;DHT22;10018;51.230;7.860;2023-03-23T16:43:09;16.70;99.90
19734;DHT22;10018;51.230;7.860;2023-03-23T16:45:38;16.30;99.90
19734;DHT22;10018;51.230;7.860;2023-03-23T16:48:04;15.90;99.90
19734;DHT22;10018;51.230;7.860;2023-03-23T16:50:30;15.40;99.90
19734;DHT22;10018;51.230;7.860;2023-03-23T16:52:56;15.10;99.90
19734;DHT22;10018;51.230;7.860;2023-03-23T16:55:22;15.00;99.90
19734;DHT22;10018;51.230;7.860;2023-03-23T16:57:47;14.80;99.90
19734;DHT22;10018;51.230;7.860;2023-03-23T17:00:15;14.60;99.90
19734;DHT22;10018;51.230;7.860;2023-03-23T17:02:45;14.30;99.90
19734;DHT22;10018;51.230;7.860;2023-03-23T17:05:12;14.00;99.90
19734;DHT22;10018;51.230;7.860;2023-03-23T17:07:41;13.80;99.90
19734;DHT22;10018;51.230;7.860;2023-03-23T17:10:09;13.60;99.90
19734;DHT22;10018;51.230;7.860;2023-03-23T17:12:35;13.40;99.90
19734;DHT22;10018;51.230;7.860;2023-03-23T17:15:04;13.20;99.90
19734;DHT22;10018;51.230;7.860;2023-03-23T17:17:30;13.10;99.90
19734;DHT22;10018;51.230;7.860;2023-03-23T17:19:56;12.90;99.90
19734;DHT22;10018;51.230;7.860;2023-03-23T17:22:21;12.70;99.90
19734;DHT22;10018;51.230;7.860;2023-03-23T17:24:47;12.50;99.90
19734;DHT22;10018;51.230;7.860;2023-03-23T17:27:14;12.40;99.90
19734;DHT22;10018;51.230;7.860;2023-03-23T17:29:41;12.20;99.90
19734;DHT22;10018;51.230;7.860;2023-03-23T17:32:06;12.10;99.90
19734;DHT22;10018;51.230;7.860;2023-03-23T17:34:35;11.90;99.90
19734;DHT22;10018;51.230;7.860;2023-03-23T17:37:01;11.80;99.90
19734;DHT22;10018;51.230;7.860;2023-03-23T17:39:28;11.70;99.90
19734;DHT22;10018;51.230;7.860;2023-03-23T17:41:53;11.60;99.90